createdAt,value
2018-09-19T00:01:29.880Z,93.86
2018-09-19T00:03:59.273Z,94.16
2018-09-19T00:06:28.694Z,94.19
2018-09-19T00:08:58.061Z,95.00
2018-09-19T00:11:27.461Z,95.61
2018-09-19T00:13:56.843Z,95.30
2018-09-19T00:16:26.232Z,95.22
2018-09-19T00:18:55.602Z,94.46
2018-09-19T00:21:24.991Z,94.58
2018-09-19T00:23:54.372Z,94.72
2018-09-19T00:26:23.774Z,95.02
2018-09-19T00:28:53.182Z,95.27
2018-09-19T00:31:22.557Z,95.58
2018-09-19T00:33:51.930Z,95.83
2018-09-19T00:36:21.325Z,96.23
2018-09-19T00:38:50.687Z,96.14
2018-09-19T00:41:20.142Z,96.61
2018-09-19T00:43:49.522Z,97.40
2018-09-19T00:46:18.887Z,97.68
2018-09-19T00:48:48.261Z,97.39
2018-09-19T00:51:17.639Z,96.57
2018-09-19T00:53:47.006Z,95.85
2018-09-19T00:56:16.387Z,96.30
2018-09-19T00:58:46.281Z,96.71
2018-09-19T01:01:15.704Z,96.80
2018-09-19T01:03:45.122Z,95.76
2018-09-19T01:06:14.482Z,95.63
2018-09-19T01:08:43.866Z,96.50
2018-09-19T01:11:13.281Z,96.94
2018-09-19T01:13:42.668Z,96.61
2018-09-19T01:16:12.073Z,96.86
2018-09-19T01:18:41.440Z,96.87
2018-09-19T01:21:10.824Z,96.89
2018-09-19T01:23:40.200Z,96.08
2018-09-19T01:26:09.546Z,96.50
2018-09-19T01:28:38.955Z,96.62
2018-09-19T01:31:08.404Z,96.58
2018-09-19T01:33:37.766Z,96.88
2018-09-19T01:36:07.182Z,96.12
2018-09-19T01:38:36.566Z,96.48
2018-09-19T01:41:06.007Z,95.96
2018-09-19T01:43:35.327Z,96.45
2018-09-19T01:46:04.823Z,96.02
2018-09-19T01:48:34.245Z,96.13
2018-09-19T01:51:03.616Z,95.96
2018-09-19T01:53:32.986Z,95.33
2018-09-19T01:56:02.651Z,95.90
2018-09-19T01:58:32.108Z,94.99
2018-09-19T02:01:01.458Z,94.80
2018-09-19T02:03:30.914Z,95.42
2018-09-19T02:06:00.284Z,95.12
2018-09-19T02:08:29.672Z,94.90
2018-09-19T02:10:59.070Z,94.79
2018-09-19T02:13:28.450Z,94.29
2018-09-19T02:15:57.821Z,95.02
2018-09-19T02:18:27.235Z,94.50
2018-09-19T02:20:56.622Z,94.37
2018-09-19T02:23:25.989Z,95.41
2018-09-19T02:25:55.373Z,95.11
2018-09-19T02:28:24.816Z,95.94
2018-09-19T02:30:54.167Z,95.84
2018-09-19T02:33:23.555Z,96.15
2018-09-19T02:35:52.945Z,95.78
2018-09-19T02:38:22.337Z,96.35
2018-09-19T02:40:51.773Z,96.86
2018-09-19T02:43:21.218Z,96.84
2018-09-19T02:45:50.606Z,96.07
2018-09-19T02:48:19.986Z,95.46
2018-09-19T02:50:49.405Z,95.84
2018-09-19T02:53:18.785Z,95.50
2018-09-19T02:55:48.159Z,96.48
2018-09-19T02:58:17.561Z,97.52
2018-09-19T03:00:46.962Z,97.15
2018-09-19T03:03:16.409Z,97.07
2018-09-19T03:05:45.790Z,96.95
2018-09-19T03:08:15.166Z,96.96
2018-09-19T03:10:44.534Z,96.62
2018-09-19T03:13:13.910Z,95.99
2018-09-19T03:15:43.317Z,96.88
2018-09-19T03:18:12.692Z,96.55
2018-09-19T03:20:42.128Z,96.55
2018-09-19T03:23:11.492Z,97.00
2018-09-19T03:25:40.882Z,98.09
2018-09-19T03:28:10.644Z,98.31
2018-09-19T03:30:40.034Z,98.02
2018-09-19T03:33:09.406Z,97.94
2018-09-19T03:35:38.806Z,97.86
2018-09-19T03:38:08.170Z,97.44
2018-09-19T03:40:37.552Z,96.71
2018-09-19T03:43:06.920Z,97.50
2018-09-19T03:45:36.287Z,97.75
2018-09-19T03:48:05.687Z,97.15
2018-09-19T03:50:35.046Z,97.25
2018-09-19T03:53:04.446Z,96.39
2018-09-19T03:55:33.821Z,96.26
2018-09-19T03:58:03.216Z,96.86
2018-09-19T04:00:32.590Z,97.06
2018-09-19T04:03:01.951Z,96.68
2018-09-19T04:05:31.318Z,97.53
2018-09-19T04:08:00.727Z,96.98
2018-09-19T04:10:30.091Z,97.08
2018-09-19T04:12:59.462Z,96.83
2018-09-19T04:15:28.837Z,96.37
2018-09-19T04:17:58.227Z,96.32
2018-09-19T04:20:27.687Z,97.35
2018-09-19T04:22:57.050Z,97.49
2018-09-19T04:25:26.481Z,96.59
2018-09-19T04:27:55.890Z,95.99
2018-09-19T04:30:25.273Z,96.23
2018-09-19T04:32:54.642Z,96.36
2018-09-19T04:35:24.026Z,96.77
2018-09-19T04:37:53.451Z,96.88
2018-09-19T04:40:22.849Z,96.23
2018-09-19T04:42:52.300Z,96.67
2018-09-19T04:45:21.759Z,96.74
2018-09-19T04:47:51.954Z,95.74
2018-09-19T04:50:21.316Z,96.11
2018-09-19T04:52:50.710Z,96.18
2018-09-19T04:55:20.101Z,96.86
2018-09-19T04:57:49.538Z,96.78
2018-09-19T05:00:18.939Z,96.42
2018-09-19T05:02:48.322Z,97.07
2018-09-19T05:05:17.886Z,96.71
2018-09-19T05:07:47.250Z,97.00
2018-09-19T05:10:16.635Z,96.82
2018-09-19T05:12:45.990Z,96.30
2018-09-19T05:15:15.376Z,96.24
2018-09-19T05:17:44.774Z,96.59
2018-09-19T05:20:14.873Z,95.48
2018-09-19T05:22:44.290Z,95.86
2018-09-19T05:25:13.662Z,95.65
2018-09-19T05:27:43.101Z,96.15
2018-09-19T05:30:12.475Z,96.50
2018-09-19T05:32:41.850Z,96.74
2018-09-19T05:35:11.290Z,96.58
2018-09-19T05:37:40.646Z,95.91
2018-09-19T05:40:11.159Z,95.81
2018-09-19T05:42:40.639Z,95.38
2018-09-19T05:45:10.311Z,94.77
2018-09-19T05:47:39.830Z,95.52
2018-09-19T05:50:09.493Z,95.77
2018-09-19T05:52:38.981Z,95.32
2018-09-19T05:55:08.711Z,95.89
2018-09-19T05:57:38.294Z,95.68
2018-09-19T06:00:08.033Z,96.17
2018-09-19T06:02:37.482Z,96.45
2018-09-19T06:05:07.089Z,96.76
2018-09-19T06:07:36.654Z,95.75
2018-09-19T06:10:06.362Z,94.97
2018-09-19T06:12:35.867Z,95.60
2018-09-19T06:15:05.532Z,94.77
2018-09-19T06:17:35.115Z,95.73
2018-09-19T06:20:04.700Z,95.53
2018-09-19T06:22:34.206Z,94.66
2018-09-19T06:25:03.950Z,94.70
2018-09-19T06:27:33.534Z,94.19
2018-09-19T06:30:03.159Z,94.23
2018-09-19T06:32:32.750Z,94.37
2018-09-19T06:35:02.387Z,94.11
2018-09-19T06:37:31.906Z,94.36
2018-09-19T06:40:01.541Z,93.76
2018-09-19T06:42:31.064Z,93.39
2018-09-19T06:45:00.864Z,93.56
2018-09-19T06:47:30.496Z,92.63
2018-09-19T06:50:00.046Z,92.68
2018-09-19T06:52:29.541Z,92.75
2018-09-19T06:54:59.191Z,92.43
2018-09-19T06:57:28.797Z,91.49
2018-09-19T06:59:58.420Z,92.06
2018-09-19T07:02:27.944Z,92.10
2018-09-19T07:04:57.498Z,91.71
2018-09-19T07:07:27.121Z,92.29
2018-09-19T07:09:56.654Z,92.23
2018-09-19T07:12:26.315Z,92.29
2018-09-19T07:14:55.857Z,92.08
2018-09-19T07:17:25.571Z,92.01
2018-09-19T07:19:55.185Z,91.55
2018-09-19T07:22:24.967Z,92.02
2018-09-19T07:24:54.612Z,91.31
2018-09-19T07:27:24.210Z,91.86
2018-09-19T07:29:53.850Z,91.72
2018-09-19T07:32:23.502Z,91.68
2018-09-19T07:34:53.187Z,93.79
2018-09-19T07:37:22.706Z,93.18
2018-09-19T07:39:52.322Z,93.81
2018-09-19T07:42:21.891Z,93.53
2018-09-19T07:44:51.384Z,92.41
2018-09-19T07:47:20.886Z,93.86
2018-09-19T07:49:50.418Z,93.62
2018-09-19T07:52:19.906Z,92.80
2018-09-19T07:54:49.578Z,91.58
2018-09-19T07:57:19.201Z,90.38
2018-09-19T07:59:48.809Z,90.74
2018-09-19T08:02:18.358Z,90.31
2018-09-19T08:04:47.896Z,89.46
2018-09-19T08:07:17.418Z,89.01
2018-09-19T08:09:47.086Z,88.55
2018-09-19T08:12:16.600Z,87.97
2018-09-19T08:14:46.238Z,88.25
2018-09-19T08:17:15.933Z,87.64
2018-09-19T08:19:45.459Z,87.14
2018-09-19T08:22:15.084Z,85.49
2018-09-19T08:24:44.768Z,85.64
2018-09-19T08:27:14.329Z,84.56
2018-09-19T08:29:44.013Z,83.76
2018-09-19T08:32:13.579Z,83.34
2018-09-19T08:34:43.135Z,84.00
2018-09-19T08:37:12.614Z,83.60
2018-09-19T08:39:42.249Z,82.86
2018-09-19T08:42:11.919Z,82.84
2018-09-19T08:44:41.453Z,82.66
2018-09-19T08:47:10.935Z,83.63
2018-09-19T08:49:40.351Z,83.25
2018-09-19T08:52:09.768Z,82.37
2018-09-19T08:54:39.244Z,81.78
2018-09-19T08:57:08.819Z,81.30
2018-09-19T08:59:38.315Z,80.43
2018-09-19T09:02:07.805Z,80.30
2018-09-19T09:04:37.248Z,79.16
2018-09-19T09:07:06.779Z,79.49
2018-09-19T09:09:36.328Z,78.73
2018-09-19T09:12:05.862Z,78.61
2018-09-19T09:14:35.328Z,78.10
2018-09-19T09:17:04.836Z,79.89
2018-09-19T09:19:34.324Z,76.64
2018-09-19T09:22:03.848Z,75.59
2018-09-19T09:24:33.307Z,75.26
2018-09-19T09:27:02.889Z,73.63
2018-09-19T09:29:32.248Z,72.82
2018-09-19T09:32:01.783Z,72.40
2018-09-19T09:34:31.180Z,72.78
2018-09-19T09:37:00.736Z,73.10
2018-09-19T09:39:30.188Z,73.37
2018-09-19T09:41:59.686Z,71.19
2018-09-19T09:44:29.228Z,71.59
2018-09-19T09:46:59.464Z,71.87
2018-09-19T09:49:29.121Z,71.48
2018-09-19T09:51:59.319Z,70.51
2018-09-19T09:54:28.888Z,70.64
2018-09-19T09:56:59.462Z,69.26
2018-09-19T09:59:28.985Z,68.63
2018-09-19T10:01:59.368Z,68.40
2018-09-19T10:04:28.794Z,68.16
2018-09-19T10:06:59.318Z,66.85
2018-09-19T10:09:28.808Z,66.60
2018-09-19T10:11:59.432Z,64.97
2018-09-19T10:14:28.880Z,64.62
2018-09-19T10:16:59.306Z,64.84
2018-09-19T10:19:28.764Z,64.04
2018-09-19T10:21:59.366Z,64.99
2018-09-19T10:24:28.903Z,63.26
2018-09-19T10:26:59.296Z,63.40
2018-09-19T10:29:28.786Z,62.33
2018-09-19T10:31:59.315Z,62.66
2018-09-19T10:34:28.791Z,61.25
2018-09-19T10:37:05.920Z,61.77
2018-09-19T10:39:35.630Z,60.12
2018-09-19T10:42:05.098Z,61.00
2018-09-19T10:44:34.684Z,59.70
2018-09-19T10:47:04.144Z,59.10
2018-09-19T10:49:33.665Z,60.49
2018-09-19T10:52:03.048Z,58.58
2018-09-19T10:54:32.537Z,56.59
2018-09-19T10:57:02.050Z,57.97
2018-09-19T10:59:31.396Z,57.38
2018-09-19T11:02:00.767Z,57.76
2018-09-19T11:04:30.244Z,56.29
2018-09-19T11:06:59.643Z,56.27
2018-09-19T11:09:29.364Z,55.19
2018-09-19T11:11:59.801Z,52.14
2018-09-19T11:14:29.299Z,52.40
2018-09-19T11:16:59.693Z,52.24
2018-09-19T11:19:29.124Z,53.66
2018-09-19T11:21:59.745Z,53.93
2018-09-19T11:24:29.174Z,52.67
2018-09-19T11:26:59.704Z,53.64
2018-09-19T11:29:29.090Z,53.66
2018-09-19T11:31:59.789Z,51.71
2018-09-19T11:34:29.344Z,52.21
2018-09-19T11:36:59.872Z,51.69
2018-09-19T11:39:29.377Z,51.60
2018-09-19T11:41:59.825Z,52.34
2018-09-19T11:44:29.323Z,50.77
2018-09-19T11:46:59.926Z,50.72
2018-09-19T11:49:29.404Z,49.26
2018-09-19T11:51:59.843Z,50.51
2018-09-19T11:54:29.312Z,51.14
2018-09-19T11:56:59.881Z,50.70
2018-09-19T11:59:29.264Z,52.24
2018-09-19T12:02:00.053Z,52.46
2018-09-19T12:04:29.526Z,52.56
2018-09-19T12:07:00.047Z,51.86
2018-09-19T12:09:29.561Z,51.77
2018-09-19T12:12:00.012Z,49.99
2018-09-19T12:14:29.541Z,49.59
2018-09-19T12:17:00.213Z,49.86
2018-09-19T12:19:29.685Z,49.05
2018-09-19T12:22:00.077Z,49.28
2018-09-19T12:24:29.580Z,48.01
2018-09-19T12:27:00.090Z,47.82
2018-09-19T12:29:29.668Z,47.56
2018-09-19T12:32:00.084Z,47.53
2018-09-19T12:34:29.479Z,49.37
2018-09-19T12:37:00.151Z,47.87
2018-09-19T12:39:29.677Z,49.12
2018-09-19T12:42:00.228Z,47.55
2018-09-19T12:44:29.680Z,46.26
2018-09-19T12:47:00.045Z,45.35
2018-09-19T12:49:29.718Z,45.58
2018-09-19T12:52:00.215Z,46.99
2018-09-19T12:54:29.651Z,47.64
2018-09-19T12:57:00.248Z,45.47
2018-09-19T12:59:29.749Z,45.44
2018-09-19T13:02:00.481Z,46.53
2018-09-19T13:04:29.952Z,44.87
2018-09-19T13:07:00.462Z,45.31
2018-09-19T13:09:29.932Z,44.88
2018-09-19T13:12:00.562Z,44.83
2018-09-19T13:14:30.082Z,46.13
2018-09-19T13:17:00.410Z,45.58
2018-09-19T13:19:29.816Z,47.25
2018-09-19T13:27:00.015Z,47.39
2018-09-19T13:29:29.460Z,47.71
2018-09-19T13:31:59.079Z,48.54
2018-09-19T13:34:28.551Z,47.19
2018-09-19T13:36:57.999Z,47.72
2018-09-19T13:39:28.460Z,47.15
2018-09-19T13:41:57.925Z,45.46
2018-09-19T13:44:27.455Z,45.47
2018-09-19T13:46:57.060Z,44.80
2018-09-19T13:49:30.930Z,41.37
2018-09-19T13:52:13.171Z,41.94
2018-09-19T13:54:42.593Z,41.34
2018-09-19T13:57:12.167Z,42.42
2018-09-19T13:59:41.838Z,43.87
2018-09-19T14:02:11.336Z,44.13
2018-09-19T14:04:40.847Z,45.32
2018-09-19T14:07:10.386Z,46.59
2018-09-19T14:09:39.903Z,44.46
2018-09-19T14:12:09.521Z,42.56
2018-09-19T14:14:39.099Z,43.47
2018-09-19T14:17:08.820Z,41.99
2018-09-19T14:19:38.265Z,42.75
2018-09-19T14:22:07.894Z,43.74
2018-09-19T14:24:38.408Z,45.13
2018-09-19T14:27:07.917Z,44.20
2018-09-19T14:29:37.556Z,42.60
2018-09-19T14:32:07.120Z,43.92
2018-09-19T14:34:36.752Z,44.53
2018-09-19T14:37:06.514Z,43.40
2018-09-19T14:39:36.089Z,43.43
2018-09-19T14:42:09.925Z,43.54
2018-09-19T14:44:39.459Z,43.94
2018-09-19T14:47:08.980Z,44.99
2018-09-19T14:49:38.440Z,46.30
2018-09-19T14:52:08.268Z,46.22
2018-09-19T14:54:37.840Z,44.87
2018-09-19T14:57:07.246Z,44.11
2018-09-19T14:59:36.828Z,43.22
2018-09-19T15:02:06.546Z,43.07
2018-09-19T15:04:36.077Z,43.95
2018-09-19T15:07:05.584Z,43.11
2018-09-19T15:09:35.048Z,43.68
2018-09-19T15:12:04.491Z,44.19
2018-09-19T15:14:34.016Z,43.87
2018-09-19T15:17:03.425Z,43.25
2018-09-19T15:19:32.823Z,44.53
2018-09-19T15:22:02.364Z,45.02
2018-09-19T15:24:31.899Z,44.44
2018-09-19T15:27:01.511Z,43.15
2018-09-19T15:29:30.962Z,42.25
2018-09-19T15:32:00.948Z,41.45
2018-09-19T15:34:30.688Z,41.83
2018-09-19T15:37:00.939Z,41.89
2018-09-19T15:39:30.547Z,42.10
2018-09-19T15:42:01.082Z,40.82
2018-09-19T15:44:30.758Z,41.49
2018-09-19T15:47:03.160Z,42.85
2018-09-19T15:49:34.884Z,41.72
2018-09-19T15:52:06.167Z,41.35
2018-09-19T15:54:37.366Z,41.95
2018-09-19T15:57:08.138Z,42.72
2018-09-19T15:59:45.425Z,41.71
2018-09-19T16:02:16.755Z,42.43
2018-09-19T16:04:48.421Z,42.83
2018-09-19T16:07:26.225Z,43.62
2018-09-19T16:10:03.739Z,44.06
2018-09-19T16:12:36.397Z,43.86
2018-09-19T16:15:10.069Z,44.73
2018-09-19T16:17:41.795Z,45.29
2018-09-19T16:20:14.374Z,45.72
2018-09-19T16:22:46.166Z,45.51
2018-09-19T16:25:18.232Z,44.77
2018-09-19T16:27:49.260Z,44.90
2018-09-19T16:30:21.131Z,45.03
2018-09-19T16:32:53.274Z,46.56
2018-09-19T16:35:25.760Z,47.22
2018-09-19T16:37:57.615Z,47.89
2018-09-19T16:40:29.178Z,48.29
2018-09-19T16:43:01.171Z,49.14
2018-09-19T16:45:33.033Z,50.37
2018-09-19T16:48:04.686Z,49.79
2018-09-19T16:50:36.901Z,50.31
2018-09-19T16:53:08.849Z,50.98
2018-09-19T16:55:40.284Z,52.15
2018-09-19T16:58:12.209Z,52.01
2018-09-19T17:00:44.459Z,52.14
2018-09-19T17:03:17.074Z,51.52
2018-09-19T17:05:49.456Z,51.41
2018-09-19T17:08:20.895Z,52.63
2018-09-19T17:10:52.512Z,52.43
2018-09-19T17:13:23.696Z,53.04
2018-09-19T17:16:00.518Z,52.89
2018-09-19T17:18:31.811Z,53.47
2018-09-19T17:21:03.541Z,53.16
2018-09-19T17:23:34.978Z,53.40
2018-09-19T17:26:06.345Z,53.02
2018-09-19T17:28:44.538Z,52.79
2018-09-19T17:31:16.396Z,53.21
2018-09-19T17:33:53.918Z,53.36
2018-09-19T17:36:25.154Z,53.48
2018-09-19T17:38:57.582Z,53.72
2018-09-19T17:41:28.703Z,54.83
2018-09-19T17:44:00.153Z,55.61
2018-09-19T17:46:33.195Z,55.43
2018-09-19T17:49:06.856Z,54.82
2018-09-19T17:51:39.279Z,55.79
2018-09-19T17:54:10.328Z,55.86
2018-09-19T17:56:45.525Z,55.50
2018-09-19T17:59:19.967Z,56.19
2018-09-19T18:01:51.537Z,56.28
2018-09-19T18:04:23.166Z,57.17
2018-09-19T18:06:56.180Z,58.28
2018-09-19T18:09:27.438Z,57.29
2018-09-19T18:11:58.914Z,58.58
2018-09-19T18:14:31.796Z,60.03
2018-09-19T18:17:05.252Z,60.62
2018-09-19T18:19:37.735Z,61.50
2018-09-19T18:22:15.651Z,61.73
2018-09-19T18:24:47.459Z,62.39
2018-09-19T18:27:20.930Z,63.41
2018-09-19T18:29:55.454Z,62.46
2018-09-19T18:32:30.167Z,64.35
2018-09-19T18:35:04.990Z,64.84
2018-09-19T18:37:37.624Z,64.93
2018-09-19T18:40:12.536Z,64.93
2018-09-19T18:42:47.609Z,64.93
2018-09-19T18:45:21.666Z,65.69
2018-09-19T18:47:56.930Z,66.80
2018-09-19T18:50:31.301Z,67.09
2018-09-19T18:53:05.913Z,66.31
2018-09-19T18:55:40.176Z,66.80
2018-09-19T18:58:19.805Z,67.80
2018-09-19T19:00:54.411Z,67.38
2018-09-19T19:03:28.890Z,68.15
2018-09-19T19:06:03.031Z,68.42
2018-09-19T19:08:36.983Z,69.43
2018-09-19T19:11:14.462Z,69.10
2018-09-19T19:13:48.365Z,68.57
2018-09-19T19:16:22.660Z,70.15
2018-09-19T19:18:56.445Z,70.17
2018-09-19T19:21:30.204Z,69.69
2018-09-19T19:24:07.772Z,71.14
2018-09-19T19:26:43.849Z,70.75
2018-09-19T19:29:20.781Z,70.88
2018-09-19T19:31:55.704Z,70.82
2018-09-19T19:34:31.594Z,71.22
2018-09-19T19:37:12.354Z,72.09
2018-09-19T19:39:46.850Z,72.14
2018-09-19T19:42:40.169Z,71.27
2018-09-19T19:45:16.335Z,71.47
2018-09-19T19:47:51.404Z,72.59
2018-09-19T19:50:30.175Z,71.89
2018-09-19T19:53:04.696Z,71.91
2018-09-19T19:55:40.787Z,71.56
2018-09-19T19:58:16.668Z,72.31
2018-09-19T20:00:52.894Z,72.73
2018-09-19T20:03:27.332Z,72.98
2018-09-19T20:06:17.961Z,73.80
2018-09-19T20:08:52.828Z,72.85
2018-09-19T20:11:26.879Z,74.31
2018-09-19T20:14:11.939Z,74.02
2018-09-19T20:17:01.131Z,74.12
2018-09-19T20:19:44.751Z,74.25
2018-09-19T20:22:29.776Z,74.72
2018-09-19T20:25:05.993Z,74.64
2018-09-19T20:27:46.191Z,74.70
2018-09-19T20:30:29.272Z,74.58
2018-09-19T20:33:11.576Z,74.75
2018-09-19T20:35:50.814Z,74.03
2018-09-19T20:38:36.749Z,73.80
2018-09-19T20:41:21.673Z,74.76
2018-09-19T20:43:57.541Z,74.02
2018-09-19T20:46:33.161Z,74.51
2018-09-19T20:49:10.638Z,75.52
2018-09-19T20:51:45.089Z,74.39
2018-09-19T20:54:24.959Z,74.33
2018-09-19T20:57:05.211Z,75.67
2018-09-19T20:59:42.472Z,75.31
2018-09-19T21:02:19.838Z,74.27
2018-09-19T21:04:56.555Z,75.67
2018-09-19T21:07:33.966Z,75.79
2018-09-19T21:10:11.433Z,75.72
2018-09-19T21:12:46.034Z,75.43
2018-09-19T21:15:22.721Z,74.81
2018-09-19T21:18:01.124Z,75.10
2018-09-19T21:20:35.806Z,75.58
2018-09-19T21:23:15.353Z,76.00
2018-09-19T21:25:51.134Z,75.30
2018-09-19T21:28:29.413Z,76.45
2018-09-19T21:31:04.855Z,77.13
2018-09-19T21:33:39.818Z,76.85
2018-09-19T21:36:13.976Z,76.62
2018-09-19T21:38:51.760Z,76.91
2018-09-19T21:41:26.078Z,77.52
2018-09-19T21:44:01.188Z,77.63
2018-09-19T21:46:39.792Z,77.54
2018-09-19T21:49:15.348Z,78.70
2018-09-19T21:51:49.446Z,78.51
2018-09-19T21:58:11.939Z,80.06
2018-09-19T22:00:41.536Z,80.16
2018-09-19T22:03:10.960Z,81.69
2018-09-19T22:05:40.410Z,80.79
2018-09-19T22:08:09.840Z,81.95
2018-09-19T22:10:39.250Z,81.95
2018-09-19T22:13:08.680Z,82.95
2018-09-19T22:15:38.075Z,83.35
2018-09-19T22:18:07.484Z,83.54
2018-09-19T22:20:36.895Z,82.57
2018-09-19T22:23:06.376Z,82.55
2018-09-19T22:25:35.811Z,81.52
2018-09-19T22:28:05.244Z,81.04
2018-09-19T22:30:34.656Z,80.75
2018-09-19T22:33:04.163Z,81.36
2018-09-19T22:35:33.564Z,81.02
2018-09-19T22:38:03.003Z,81.91
2018-09-19T22:40:32.415Z,82.42
2018-09-19T22:43:01.844Z,82.63
2018-09-19T22:45:31.267Z,82.65
2018-09-19T22:48:00.681Z,83.59
2018-09-19T22:50:30.227Z,84.69
2018-09-19T22:52:59.637Z,84.33
2018-09-19T22:55:29.059Z,85.22
2018-09-19T22:57:58.487Z,85.00
2018-09-19T23:00:27.892Z,86.22
2018-09-19T23:02:57.355Z,86.38
2018-09-19T23:05:26.791Z,85.34
2018-09-19T23:07:56.206Z,85.52
2018-09-19T23:10:25.678Z,86.34
2018-09-19T23:12:55.087Z,86.65
2018-09-19T23:15:24.585Z,87.21
2018-09-19T23:17:54.025Z,86.79
2018-09-19T23:20:23.449Z,86.75
2018-09-19T23:22:52.900Z,85.71
2018-09-19T23:25:22.315Z,85.93
2018-09-19T23:27:51.748Z,85.50
2018-09-19T23:30:21.212Z,84.95
2018-09-19T23:32:50.625Z,84.98
2018-09-19T23:35:20.052Z,85.15
2018-09-19T23:37:49.500Z,85.27
2018-09-19T23:40:18.901Z,86.10
2018-09-19T23:42:48.340Z,86.21
2018-09-19T23:45:17.767Z,85.99
2018-09-19T23:47:47.167Z,86.14
2018-09-19T23:50:16.578Z,88.40
2018-09-19T23:52:46.089Z,87.03
2018-09-19T23:55:15.496Z,86.37
2018-09-19T23:57:45.040Z,86.69
